Flight Track Log - Related Links

Times and Time Zones

All times are in EDT time to prevent confusion due to time zone crossing. See the CES2431 flight status page for this flight to view local times or setup timezone preferences in your user account.

Time Position Orientation Groundspeed Altitude Reporting Facility
EDT Latitude Longitude Course Direction KTS MPH feet Rate Location/Type
Fri 10:53:00 AM 33.2296 109.1554 164° South  Level Estimated
Fri 10:54:00 AM 33.1359 109.1860 165° South  Level Estimated
Fri 10:55:00 AM 33.0421 109.2165 165° South  Level Estimated
Fri 10:56:00 AM 32.9484 109.2470 165° South  Level Estimated
Fri 10:57:00 AM 32.8547 109.2774 165° South  Level Estimated
Fri 10:58:00 AM 32.7609 109.3077 165° South  Level Estimated
Fri 10:59:00 AM 32.6672 109.3380 165° South  Level Estimated
Fri 11:00:00 AM 32.5734 109.3682 165° South  Level Estimated
Fri 11:01:00 AM 32.4797 109.3983 165° South  Level Estimated
Fri 11:02:00 AM 32.3859 109.4284 165° South  Level Estimated
Fri 11:03:00 AM 32.2921 109.4584 165° South  Level Estimated
Fri 11:04:00 AM 32.1983 109.4884 165° South  Level Estimated
Fri 11:05:00 AM 32.1046 109.5182 165° South  Level Estimated
Fri 11:06:00 AM 32.0108 109.5481 165° South  Level Estimated
Fri 11:07:00 AM 31.9170 109.5779 165° South  Level Estimated
Fri 11:08:00 AM 31.8232 109.6076 165° South  Level Estimated
Fri 11:09:00 AM 31.7293 109.6372 165° South  Level Estimated
Fri 11:10:00 AM 31.6355 109.6668 165° South  Level Estimated
Fri 11:11:00 AM 31.5417 109.6963 165° South  Level Estimated
Fri 11:12:00 AM 31.4478 109.7258 165° South  Level Estimated
Fri 11:13:00 AM 31.3540 109.7552 165° South  Level Estimated
Fri 11:14:00 AM 31.2601 109.7846 165° South  Level Estimated
Fri 11:15:00 AM 31.1663 109.8139 165° South  Level Estimated
Fri 11:16:00 AM 31.0724 109.8431 165° South  Level Estimated
Fri 11:17:00 AM 30.9785 109.8723 165° South  Level Estimated
Fri 11:18:00 AM 30.8847 109.9014 165° South  Level Estimated
Fri 11:19:00 AM 30.7908 109.9305 165° South  Level Estimated
Fri 11:20:00 AM 30.6969 109.9595 165° South  Level Estimated
Fri 11:21:00 AM 30.6030 109.9884 165° South  Level Estimated
Fri 11:22:00 AM 30.5091 110.0173 165° South  Level Estimated
Fri 11:23:00 AM 30.4152 110.0462 165° South  Level Estimated
Fri 11:24:00 AM 30.3213 110.0749 165° South  Level Estimated
Fri 11:25:00 AM 30.2202 110.1058 165° South  Level Estimated
Fri 11:26:00 AM 30.1192 110.1367 165° South  Level Estimated
Fri 11:27:00 AM 30.0182 110.1674 165° South  Level Estimated
Fri 11:28:00 AM 29.9172 110.1982 165° South  Level Estimated
Fri 11:29:00 AM 29.8161 110.2288 165° South  Level Estimated
Fri 11:30:00 AM 29.7151 110.2594 165° South  Level Estimated
Fri 11:31:00 AM 29.6140 110.2899 165° South  Level Estimated
Fri 11:32:00 AM 29.5130 110.3204 165° South  Level Estimated
Fri 11:33:00 AM 29.4119 110.3508 165° South  Level Estimated
Fri 11:34:00 AM 29.3108 110.3811 165° South  Level Estimated
Fri 11:35:00 AM 29.2097 110.4114 165° South  Level Estimated
Fri 11:36:00 AM 29.1086 110.4416 165° South  Level Estimated
Fri 11:37:00 AM 29.1028 110.4433 165° South  Level Estimated
Fri 11:38:00 AM 29.1028 110.4433 North  Level Estimated
Fri 11:39:00 AM 29.1028 110.4433 North  Level Estimated
Fri 11:40:00 AM 29.1028 110.4433 North  Level Estimated
Fri 11:41:00 AM 29.1028 110.4433 North  Level Estimated
Fri 11:42:00 AM 29.1028 110.4433 North  Level Estimated
Fri 11:43:00 AM 29.1028 110.4433 North  Level Estimated
Fri 11:44:00 AM 29.1028 110.4433 North  Level Estimated
Fri 11:45:00 AM 29.1028 110.4433 North  Level Estimated

Login

Don't have an account? Register now (free) for customized features, flight alerts, and more!